sensor_id;sensor_type;location;lat;lon;timestamp;pressure;altitude;pressure_sealevel;temperature;humidity
30598;BME280;17365;48.878;8.334;2022-09-25T00:01:22;99715.06;;;14.41;100.00
30598;BME280;17365;48.878;8.334;2022-09-25T00:03:47;99713.56;;;14.29;100.00
30598;BME280;17365;48.878;8.334;2022-09-25T00:06:18;99707.44;;;14.30;100.00
30598;BME280;17365;48.878;8.334;2022-09-25T00:08:44;99705.53;;;14.38;100.00
30598;BME280;17365;48.878;8.334;2022-09-25T00:11:16;99699.38;;;14.42;100.00
30598;BME280;17365;48.878;8.334;2022-09-25T00:13:42;99707.19;;;14.42;100.00
30598;BME280;17365;48.878;8.334;2022-09-25T00:16:15;99701.19;;;14.39;100.00
30598;BME280;17365;48.878;8.334;2022-09-25T00:18:41;99707.16;;;14.44;100.00
30598;BME280;17365;48.878;8.334;2022-09-25T00:21:26;99698.94;;;14.20;100.00
30598;BME280;17365;48.878;8.334;2022-09-25T00:23:55;99697.53;;;14.47;100.00
30598;BME280;17365;48.878;8.334;2022-09-25T00:26:20;99698.44;;;14.46;100.00
30598;BME280;17365;48.878;8.334;2022-09-25T00:28:45;99695.13;;;14.37;100.00
30598;BME280;17365;48.878;8.334;2022-09-25T00:31:11;99694.88;;;14.04;100.00
30598;BME280;17365;48.878;8.334;2022-09-25T00:33:42;99695.31;;;14.27;100.00
30598;BME280;17365;48.878;8.334;2022-09-25T00:36:09;99692.78;;;14.23;100.00
30598;BME280;17365;48.878;8.334;2022-09-25T00:38:36;99685.16;;;14.12;100.00
30598;BME280;17365;48.878;8.334;2022-09-25T00:41:05;99685.47;;;13.97;100.00
30598;BME280;17365;48.878;8.334;2022-09-25T00:43:34;99683.47;;;14.11;100.00
30598;BME280;17365;48.878;8.334;2022-09-25T00:46:06;99684.91;;;14.26;100.00
30598;BME280;17365;48.878;8.334;2022-09-25T00:48:31;99683.59;;;14.04;100.00
30598;BME280;17365;48.878;8.334;2022-09-25T00:50:58;99682.66;;;14.08;100.00
30598;BME280;17365;48.878;8.334;2022-09-25T00:53:27;99686.00;;;14.16;100.00
30598;BME280;17365;48.878;8.334;2022-09-25T00:55:54;99680.72;;;14.19;100.00
30598;BME280;17365;48.878;8.334;2022-09-25T00:58:23;99682.28;;;14.27;100.00
30598;BME280;17365;48.878;8.334;2022-09-25T01:00:51;99677.75;;;14.36;100.00
30598;BME280;17365;48.878;8.334;2022-09-25T01:03:19;99673.41;;;14.35;100.00
30598;BME280;17365;48.878;8.334;2022-09-25T01:05:45;99671.81;;;14.29;100.00
30598;BME280;17365;48.878;8.334;2022-09-25T01:08:14;99672.53;;;14.36;100.00
30598;BME280;17365;48.878;8.334;2022-09-25T01:10:40;99672.38;;;14.43;100.00
30598;BME280;17365;48.878;8.334;2022-09-25T01:13:06;99676.41;;;14.15;100.00
30598;BME280;17365;48.878;8.334;2022-09-25T01:16:06;99667.53;;;14.25;100.00
30598;BME280;17365;48.878;8.334;2022-09-25T01:24:10;99680.31;;;14.39;100.00
30598;BME280;17365;48.878;8.334;2022-09-25T01:27:05;99681.47;;;14.24;100.00
30598;BME280;17365;48.878;8.334;2022-09-25T01:29:39;99677.66;;;14.40;100.00
30598;BME280;17365;48.878;8.334;2022-09-25T01:32:19;99674.19;;;14.40;100.00
30598;BME280;17365;48.878;8.334;2022-09-25T01:34:58;99673.50;;;14.32;100.00
30598;BME280;17365;48.878;8.334;2022-09-25T01:37:32;99666.22;;;14.47;100.00
30598;BME280;17365;48.878;8.334;2022-09-25T01:40:13;99664.53;;;14.43;100.00
30598;BME280;17365;48.878;8.334;2022-09-25T01:42:46;99673.34;;;14.39;100.00
30598;BME280;17365;48.878;8.334;2022-09-25T01:45:18;99665.84;;;14.22;100.00
30598;BME280;17365;48.878;8.334;2022-09-25T01:47:47;99672.56;;;14.34;100.00
30598;BME280;17365;48.878;8.334;2022-09-25T01:50:58;99672.84;;;14.20;100.00
30598;BME280;17365;48.878;8.334;2022-09-25T01:53:25;99665.63;;;14.33;100.00
30598;BME280;17365;48.878;8.334;2022-09-25T01:56:01;99664.66;;;14.39;100.00
30598;BME280;17365;48.878;8.334;2022-09-25T01:58:37;99658.50;;;14.41;100.00
30598;BME280;17365;48.878;8.334;2022-09-25T02:01:18;99663.81;;;14.37;100.00
30598;BME280;17365;48.878;8.334;2022-09-25T02:03:50;99663.75;;;14.40;100.00
30598;BME280;17365;48.878;8.334;2022-09-25T02:06:20;99660.47;;;14.30;100.00
30598;BME280;17365;48.878;8.334;2022-09-25T02:08:50;99661.13;;;14.41;100.00
30598;BME280;17365;48.878;8.334;2022-09-25T02:11:18;99643.06;;;14.31;100.00
30598;BME280;17365;48.878;8.334;2022-09-25T02:13:49;99646.31;;;13.98;100.00
30598;BME280;17365;48.878;8.334;2022-09-25T02:16:28;99655.91;;;13.98;100.00
30598;BME280;17365;48.878;8.334;2022-09-25T02:18:54;99649.47;;;14.16;100.00
30598;BME280;17365;48.878;8.334;2022-09-25T02:24:38;99651.03;;;14.23;100.00
30598;BME280;17365;48.878;8.334;2022-09-25T02:27:06;99651.09;;;14.21;100.00
30598;BME280;17365;48.878;8.334;2022-09-25T02:29:31;99652.91;;;14.18;100.00
30598;BME280;17365;48.878;8.334;2022-09-25T02:32:01;99658.81;;;14.26;100.00
30598;BME280;17365;48.878;8.334;2022-09-25T02:34:30;99657.97;;;14.24;100.00
30598;BME280;17365;48.878;8.334;2022-09-25T02:36:55;99654.53;;;14.22;100.00
30598;BME280;17365;48.878;8.334;2022-09-25T02:39:23;99653.69;;;14.21;100.00
30598;BME280;17365;48.878;8.334;2022-09-25T02:48:11;99651.28;;;14.11;100.00
30598;BME280;17365;48.878;8.334;2022-09-25T02:51:07;99651.44;;;14.03;100.00
30598;BME280;17365;48.878;8.334;2022-09-25T02:53:41;99647.66;;;14.19;100.00
30598;BME280;17365;48.878;8.334;2022-09-25T02:56:12;99646.69;;;14.23;100.00
30598;BME280;17365;48.878;8.334;2022-09-25T02:58:48;99644.00;;;14.26;100.00
30598;BME280;17365;48.878;8.334;2022-09-25T03:01:16;99647.59;;;14.22;100.00
30598;BME280;17365;48.878;8.334;2022-09-25T03:03:44;99645.91;;;14.20;100.00
30598;BME280;17365;48.878;8.334;2022-09-25T03:06:11;99648.41;;;14.24;100.00
30598;BME280;17365;48.878;8.334;2022-09-25T03:08:39;99649.25;;;14.25;100.00
30598;BME280;17365;48.878;8.334;2022-09-25T03:11:13;99647.19;;;13.99;100.00
30598;BME280;17365;48.878;8.334;2022-09-25T03:13:39;99646.22;;;14.05;100.00
30598;BME280;17365;48.878;8.334;2022-09-25T03:19:12;99648.00;;;14.01;100.00
30598;BME280;17365;48.878;8.334;2022-09-25T03:21:38;99640.69;;;14.20;100.00
30598;BME280;17365;48.878;8.334;2022-09-25T03:24:03;99644.91;;;14.25;100.00
30598;BME280;17365;48.878;8.334;2022-09-25T03:26:29;99645.75;;;14.26;100.00
30598;BME280;17365;48.878;8.334;2022-09-25T03:28:55;99645.13;;;14.16;100.00
30598;BME280;17365;48.878;8.334;2022-09-25T03:31:21;99646.63;;;14.28;100.00
30598;BME280;17365;48.878;8.334;2022-09-25T03:33:47;99643.22;;;14.23;100.00
30598;BME280;17365;48.878;8.334;2022-09-25T03:36:15;99645.75;;;14.26;100.00
30598;BME280;17365;48.878;8.334;2022-09-25T03:38:42;99646.50;;;14.33;100.00
30598;BME280;17365;48.878;8.334;2022-09-25T03:41:08;99641.34;;;14.30;100.00
30598;BME280;17365;48.878;8.334;2022-09-25T03:43:38;99646.91;;;14.13;100.00
30598;BME280;17365;48.878;8.334;2022-09-25T03:46:05;99644.25;;;14.16;100.00
30598;BME280;17365;48.878;8.334;2022-09-25T03:48:31;99650.25;;;14.19;100.00
30598;BME280;17365;48.878;8.334;2022-09-25T03:50:57;99646.63;;;14.28;100.00
30598;BME280;17365;48.878;8.334;2022-09-25T03:53:23;99640.53;;;14.26;100.00
30598;BME280;17365;48.878;8.334;2022-09-25T03:55:50;99643.19;;;14.24;100.00
30598;BME280;17365;48.878;8.334;2022-09-25T03:58:15;99641.31;;;14.31;100.00
30598;BME280;17365;48.878;8.334;2022-09-25T04:00:41;99654.50;;;14.23;100.00
30598;BME280;17365;48.878;8.334;2022-09-25T04:03:06;99647.53;;;14.24;100.00
30598;BME280;17365;48.878;8.334;2022-09-25T04:05:32;99651.19;;;14.15;100.00
30598;BME280;17365;48.878;8.334;2022-09-25T04:07:57;99659.31;;;14.00;100.00
30598;BME280;17365;48.878;8.334;2022-09-25T04:10:24;99640.03;;;14.09;100.00
30598;BME280;17365;48.878;8.334;2022-09-25T04:12:50;99644.25;;;14.14;100.00
30598;BME280;17365;48.878;8.334;2022-09-25T04:15:19;99644.44;;;13.59;100.00
30598;BME280;17365;48.878;8.334;2022-09-25T04:17:44;99647.53;;;13.82;100.00
30598;BME280;17365;48.878;8.334;2022-09-25T04:20:09;99649.91;;;13.94;100.00
30598;BME280;17365;48.878;8.334;2022-09-25T04:22:35;99649.59;;;14.10;100.00
30598;BME280;17365;48.878;8.334;2022-09-25T04:25:00;99649.69;;;14.04;100.00
30598;BME280;17365;48.878;8.334;2022-09-25T04:27:27;99647.22;;;13.97;100.00
30598;BME280;17365;48.878;8.334;2022-09-25T04:29:52;99653.69;;;13.77;100.00
30598;BME280;17365;48.878;8.334;2022-09-25T04:32:17;99650.31;;;13.72;100.00
30598;BME280;17365;48.878;8.334;2022-09-25T04:35:01;99646.44;;;13.92;100.00
30598;BME280;17365;48.878;8.334;2022-09-25T04:37:27;99648.31;;;13.86;100.00
30598;BME280;17365;48.878;8.334;2022-09-25T04:39:54;99648.91;;;14.00;100.00
30598;BME280;17365;48.878;8.334;2022-09-25T04:42:20;99640.38;;;13.90;100.00
30598;BME280;17365;48.878;8.334;2022-09-25T04:44:56;99650.53;;;13.61;100.00
30598;BME280;17365;48.878;8.334;2022-09-25T04:47:24;99644.88;;;13.84;100.00
30598;BME280;17365;48.878;8.334;2022-09-25T04:49:50;99648.16;;;13.95;100.00
30598;BME280;17365;48.878;8.334;2022-09-25T04:52:17;99651.53;;;13.98;100.00
30598;BME280;17365;48.878;8.334;2022-09-25T04:54:44;99648.97;;;13.97;100.00
30598;BME280;17365;48.878;8.334;2022-09-25T04:57:17;99653.41;;;13.93;100.00
30598;BME280;17365;48.878;8.334;2022-09-25T04:59:43;99653.88;;;13.66;100.00
30598;BME280;17365;48.878;8.334;2022-09-25T05:02:09;99655.22;;;13.88;100.00
30598;BME280;17365;48.878;8.334;2022-09-25T05:04:35;99660.44;;;13.88;100.00
30598;BME280;17365;48.878;8.334;2022-09-25T05:07:00;99662.03;;;13.95;100.00
30598;BME280;17365;48.878;8.334;2022-09-25T05:09:25;99659.47;;;13.94;100.00
30598;BME280;17365;48.878;8.334;2022-09-25T05:11:51;99660.19;;;14.01;100.00
30598;BME280;17365;48.878;8.334;2022-09-25T05:14:16;99662.84;;;13.99;100.00
30598;BME280;17365;48.878;8.334;2022-09-25T05:16:41;99660.97;;;14.06;100.00
30598;BME280;17365;48.878;8.334;2022-09-25T05:19:07;99659.25;;;14.05;100.00
30598;BME280;17365;48.878;8.334;2022-09-25T05:21:33;99658.31;;;14.09;100.00
30598;BME280;17365;48.878;8.334;2022-09-25T05:23:58;99655.75;;;14.04;100.00
30598;BME280;17365;48.878;8.334;2022-09-25T05:26:24;99659.28;;;14.02;100.00
30598;BME280;17365;48.878;8.334;2022-09-25T05:28:49;99656.59;;;14.08;100.00
30598;BME280;17365;48.878;8.334;2022-09-25T05:31:15;99664.34;;;14.11;100.00
30598;BME280;17365;48.878;8.334;2022-09-25T05:33:41;99657.31;;;14.14;100.00
30598;BME280;17365;48.878;8.334;2022-09-25T05:36:08;99655.72;;;14.07;100.00
30598;BME280;17365;48.878;8.334;2022-09-25T05:38:35;99657.34;;;14.13;100.00
30598;BME280;17365;48.878;8.334;2022-09-25T05:41:07;99659.91;;;14.14;100.00
30598;BME280;17365;48.878;8.334;2022-09-25T05:43:37;99655.53;;;14.16;100.00
30598;BME280;17365;48.878;8.334;2022-09-25T05:46:04;99658.91;;;14.21;100.00
30598;BME280;17365;48.878;8.334;2022-09-25T05:48:29;99666.22;;;14.03;100.00
30598;BME280;17365;48.878;8.334;2022-09-25T05:50:56;99663.44;;;14.12;100.00
30598;BME280;17365;48.878;8.334;2022-09-25T05:53:22;99658.31;;;14.09;100.00
30598;BME280;17365;48.878;8.334;2022-09-25T05:55:52;99660.25;;;13.97;100.00
30598;BME280;17365;48.878;8.334;2022-09-25T05:58:18;99666.69;;;13.78;100.00
30598;BME280;17365;48.878;8.334;2022-09-25T06:00:43;99671.44;;;14.03;100.00
30598;BME280;17365;48.878;8.334;2022-09-25T06:03:09;99668.75;;;14.07;100.00
30598;BME280;17365;48.878;8.334;2022-09-25T06:05:35;99673.28;;;13.97;100.00
30598;BME280;17365;48.878;8.334;2022-09-25T06:08:01;99674.09;;;14.01;100.00
30598;BME280;17365;48.878;8.334;2022-09-25T06:10:26;99671.53;;;13.98;100.00
30598;BME280;17365;48.878;8.334;2022-09-25T06:12:56;99670.63;;;14.01;100.00
30598;BME280;17365;48.878;8.334;2022-09-25T06:15:23;99679.88;;;14.17;100.00
30598;BME280;17365;48.878;8.334;2022-09-25T06:17:50;99674.47;;;14.26;100.00
30598;BME280;17365;48.878;8.334;2022-09-25T06:20:15;99674.63;;;14.18;100.00
30598;BME280;17365;48.878;8.334;2022-09-25T06:22:41;99680.75;;;14.17;100.00
30598;BME280;17365;48.878;8.334;2022-09-25T06:25:07;99680.81;;;14.13;100.00
30598;BME280;17365;48.878;8.334;2022-09-25T06:27:33;99680.25;;;13.97;100.00
30598;BME280;17365;48.878;8.334;2022-09-25T06:29:58;99679.63;;;13.84;100.00
30598;BME280;17365;48.878;8.334;2022-09-25T06:32:23;99687.53;;;13.80;100.00
30598;BME280;17365;48.878;8.334;2022-09-25T06:34:49;99685.81;;;13.79;100.00
30598;BME280;17365;48.878;8.334;2022-09-25T06:37:14;99683.91;;;13.88;100.00
30598;BME280;17365;48.878;8.334;2022-09-25T06:39:40;99692.88;;;13.74;100.00
30598;BME280;17365;48.878;8.334;2022-09-25T06:42:05;99681.16;;;13.48;100.00
30598;BME280;17365;48.878;8.334;2022-09-25T06:44:30;99692.97;;;13.67;100.00
30598;BME280;17365;48.878;8.334;2022-09-25T06:46:55;99694.44;;;13.81;100.00
30598;BME280;17365;48.878;8.334;2022-09-25T06:49:21;99696.19;;;13.80;100.00
30598;BME280;17365;48.878;8.334;2022-09-25T06:51:46;99694.03;;;14.04;100.00
30598;BME280;17365;48.878;8.334;2022-09-25T06:54:12;99687.84;;;14.09;100.00
30598;BME280;17365;48.878;8.334;2022-09-25T06:56:37;99688.81;;;14.05;100.00
30598;BME280;17365;48.878;8.334;2022-09-25T06:59:03;99693.16;;;14.05;100.00
30598;BME280;17365;48.878;8.334;2022-09-25T07:01:29;99685.97;;;14.17;100.00
30598;BME280;17365;48.878;8.334;2022-09-25T07:03:54;99687.94;;;14.05;100.00
30598;BME280;17365;48.878;8.334;2022-09-25T07:06:21;99689.69;;;14.03;100.00
30598;BME280;17365;48.878;8.334;2022-09-25T07:08:48;99686.84;;;14.16;100.00
30598;BME280;17365;48.878;8.334;2022-09-25T07:11:17;99681.31;;;14.32;100.00
30598;BME280;17365;48.878;8.334;2022-09-25T07:13:43;99683.78;;;14.39;100.00
30598;BME280;17365;48.878;8.334;2022-09-25T07:16:12;99686.75;;;14.21;100.00
30598;BME280;17365;48.878;8.334;2022-09-25T07:18:38;99687.75;;;14.14;100.00
30598;BME280;17365;48.878;8.334;2022-09-25T07:23:35;99687.28;;;14.37;100.00
30598;BME280;17365;48.878;8.334;2022-09-25T07:26:06;99690.28;;;14.18;100.00
30598;BME280;17365;48.878;8.334;2022-09-25T07:28:31;99691.34;;;14.08;100.00
30598;BME280;17365;48.878;8.334;2022-09-25T07:30:57;99684.41;;;14.07;100.00
30598;BME280;17365;48.878;8.334;2022-09-25T07:33:22;99687.72;;;14.15;100.00
30598;BME280;17365;48.878;8.334;2022-09-25T07:35:52;99685.16;;;14.12;100.00
30598;BME280;17365;48.878;8.334;2022-09-25T07:38:17;99684.56;;;14.44;100.00
30598;BME280;17365;48.878;8.334;2022-09-25T07:40:43;99688.44;;;14.23;100.00
30598;BME280;17365;48.878;8.334;2022-09-25T07:43:09;99689.78;;;14.44;100.00
30598;BME280;17365;48.878;8.334;2022-09-25T07:45:34;99692.59;;;14.75;100.00
30598;BME280;17365;48.878;8.334;2022-09-25T07:48:02;99690.50;;;14.52;100.00
30598;BME280;17365;48.878;8.334;2022-09-25T07:50:29;99692.69;;;14.72;100.00
30598;BME280;17365;48.878;8.334;2022-09-25T07:52:54;99695.47;;;14.20;100.00
30598;BME280;17365;48.878;8.334;2022-09-25T07:55:19;99693.81;;;14.16;100.00
30598;BME280;17365;48.878;8.334;2022-09-25T07:57:45;99692.53;;;14.35;100.00
30598;BME280;17365;48.878;8.334;2022-09-25T08:00:11;99688.69;;;14.54;100.00
30598;BME280;17365;48.878;8.334;2022-09-25T08:02:37;99687.66;;;14.63;100.00
30598;BME280;17365;48.878;8.334;2022-09-25T08:05:03;99691.91;;;14.24;100.00
30598;BME280;17365;48.878;8.334;2022-09-25T08:07:28;99696.22;;;13.79;100.00
30598;BME280;17365;48.878;8.334;2022-09-25T08:09:53;99698.69;;;13.88;100.00
30598;BME280;17365;48.878;8.334;2022-09-25T08:12:19;99685.72;;;14.30;100.00
30598;BME280;17365;48.878;8.334;2022-09-25T08:14:44;99696.84;;;14.38;100.00
30598;BME280;17365;48.878;8.334;2022-09-25T08:17:10;99698.28;;;14.09;100.00
30598;BME280;17365;48.878;8.334;2022-09-25T08:19:35;99699.44;;;14.38;100.00
30598;BME280;17365;48.878;8.334;2022-09-25T08:22:01;99692.47;;;14.38;100.00
30598;BME280;17365;48.878;8.334;2022-09-25T08:24:26;99696.72;;;14.44;100.00
30598;BME280;17365;48.878;8.334;2022-09-25T08:26:51;99698.88;;;14.23;100.00
30598;BME280;17365;48.878;8.334;2022-09-25T08:29:16;99692.84;;;14.20;100.00
30598;BME280;17365;48.878;8.334;2022-09-25T08:31:42;99700.56;;;14.24;100.00
30598;BME280;17365;48.878;8.334;2022-09-25T08:34:07;99695.88;;;14.43;100.00
30598;BME280;17365;48.878;8.334;2022-09-25T08:36:34;99700.53;;;14.71;99.41
30598;BME280;17365;48.878;8.334;2022-09-25T08:39:00;99698.69;;;14.76;98.39
30598;BME280;17365;48.878;8.334;2022-09-25T08:41:29;99696.09;;;14.33;100.00
30598;BME280;17365;48.878;8.334;2022-09-25T08:46:44;99692.22;;;14.53;100.00
30598;BME280;17365;48.878;8.334;2022-09-25T08:52:30;99699.59;;;14.75;97.84
30598;BME280;17365;48.878;8.334;2022-09-25T08:54:55;99702.84;;;14.44;99.36
30598;BME280;17365;48.878;8.334;2022-09-25T08:57:36;99706.19;;;14.06;100.00
30598;BME280;17365;48.878;8.334;2022-09-25T09:00:09;99706.72;;;14.22;100.00
30598;BME280;17365;48.878;8.334;2022-09-25T09:02:45;99702.97;;;14.35;100.00
30598;BME280;17365;48.878;8.334;2022-09-25T09:07:45;99688.81;;;14.48;100.00
30598;BME280;17365;48.878;8.334;2022-09-25T09:10:35;99694.41;;;14.73;100.00
30598;BME280;17365;48.878;8.334;2022-09-25T09:15:41;99687.41;;;15.12;96.01
30598;BME280;17365;48.878;8.334;2022-09-25T09:18:21;99694.00;;;15.27;95.77
30598;BME280;17365;48.878;8.334;2022-09-25T09:20:52;99695.72;;;15.30;94.21
30598;BME280;17365;48.878;8.334;2022-09-25T09:23:21;99706.47;;;15.16;94.24
30598;BME280;17365;48.878;8.334;2022-09-25T09:26:00;99702.47;;;15.01;94.32
30598;BME280;17365;48.878;8.334;2022-09-25T09:29:07;99709.88;;;15.20;94.98
30598;BME280;17365;48.878;8.334;2022-09-25T09:31:51;99707.56;;;15.07;93.76
30598;BME280;17365;48.878;8.334;2022-09-25T09:37:21;99695.06;;;15.56;91.44
30598;BME280;17365;48.878;8.334;2022-09-25T09:42:32;99704.78;;;15.13;93.64
30598;BME280;17365;48.878;8.334;2022-09-25T09:45:26;99697.03;;;15.46;93.09
30598;BME280;17365;48.878;8.334;2022-09-25T09:48:13;99687.91;;;15.96;90.31
30598;BME280;17365;48.878;8.334;2022-09-25T09:50:42;99693.31;;;16.23;87.14
30598;BME280;17365;48.878;8.334;2022-09-25T09:53:29;99693.56;;;15.81;89.34
30598;BME280;17365;48.878;8.334;2022-09-25T09:56:10;99691.13;;;15.73;90.04
30598;BME280;17365;48.878;8.334;2022-09-25T09:58:46;99688.22;;;15.84;90.51
30598;BME280;17365;48.878;8.334;2022-09-25T10:01:14;99683.47;;;16.00;88.29
30598;BME280;17365;48.878;8.334;2022-09-25T10:03:43;99684.69;;;16.18;86.09
30598;BME280;17365;48.878;8.334;2022-09-25T10:06:12;99684.41;;;16.28;84.20
30598;BME280;17365;48.878;8.334;2022-09-25T10:08:38;99682.91;;;16.80;83.34
30598;BME280;17365;48.878;8.334;2022-09-25T10:11:12;99680.34;;;16.79;81.43
30598;BME280;17365;48.878;8.334;2022-09-25T10:13:38;99680.41;;;16.76;82.78
30598;BME280;17365;48.878;8.334;2022-09-25T10:16:19;99670.19;;;16.96;81.57
30598;BME280;17365;48.878;8.334;2022-09-25T10:18:59;99672.91;;;16.93;82.59
30598;BME280;17365;48.878;8.334;2022-09-25T10:21:30;99663.19;;;16.97;80.90
30598;BME280;17365;48.878;8.334;2022-09-25T10:23:57;99671.88;;;16.40;81.96
30598;BME280;17365;48.878;8.334;2022-09-25T10:28:53;99667.06;;;16.55;82.57
30598;BME280;17365;48.878;8.334;2022-09-25T10:31:23;99670.59;;;16.53;83.77
30598;BME280;17365;48.878;8.334;2022-09-25T10:36:39;99669.13;;;16.74;80.75
30598;BME280;17365;48.878;8.334;2022-09-25T10:39:29;99678.28;;;15.98;83.39
30598;BME280;17365;48.878;8.334;2022-09-25T10:41:56;99669.59;;;16.27;82.48
30598;BME280;17365;48.878;8.334;2022-09-25T10:44:31;99678.63;;;16.17;83.79
30598;BME280;17365;48.878;8.334;2022-09-25T10:50:20;99668.63;;;16.32;84.02
30598;BME280;17365;48.878;8.334;2022-09-25T11:03:34;99685.53;;;15.53;89.68
30598;BME280;17365;48.878;8.334;2022-09-25T11:06:05;99689.31;;;16.08;86.81
30598;BME280;17365;48.878;8.334;2022-09-25T11:08:35;99682.38;;;16.38;85.29
30598;BME280;17365;48.878;8.334;2022-09-25T11:11:06;99686.34;;;16.22;84.97
30598;BME280;17365;48.878;8.334;2022-09-25T11:16:07;99690.78;;;16.20;85.62
30598;BME280;17365;48.878;8.334;2022-09-25T11:18:42;99695.56;;;16.04;84.97
30598;BME280;17365;48.878;8.334;2022-09-25T11:29:52;99687.03;;;16.28;84.96
30598;BME280;17365;48.878;8.334;2022-09-25T11:41:11;99676.94;;;16.46;84.84
30598;BME280;17365;48.878;8.334;2022-09-25T11:43:54;99675.81;;;16.54;84.71
30598;BME280;17365;48.878;8.334;2022-09-25T11:49:34;99670.94;;;16.42;84.64
30598;BME280;17365;48.878;8.334;2022-09-25T12:00:44;99668.25;;;17.03;83.54
30598;BME280;17365;48.878;8.334;2022-09-25T12:05:56;99668.88;;;17.09;83.08
30598;BME280;17365;48.878;8.334;2022-09-25T12:13:59;99661.88;;;16.54;84.71
30598;BME280;17365;48.878;8.334;2022-09-25T12:16:33;99655.66;;;16.86;83.40
30598;BME280;17365;48.878;8.334;2022-09-25T12:19:07;99658.59;;;16.75;83.02
30598;BME280;17365;48.878;8.334;2022-09-25T12:24:40;99672.53;;;17.05;79.90
30598;BME280;17365;48.878;8.334;2022-09-25T12:27:17;99666.91;;;17.95;76.48
30598;BME280;17365;48.878;8.334;2022-09-25T12:32:50;99657.69;;;18.32;71.60
30598;BME280;17365;48.878;8.334;2022-09-25T12:35:33;99662.59;;;18.88;70.12
30598;BME280;17365;48.878;8.334;2022-09-25T12:38:06;99646.56;;;17.51;74.24
30598;BME280;17365;48.878;8.334;2022-09-25T12:40:46;99638.25;;;18.38;70.82
30598;BME280;17365;48.878;8.334;2022-09-25T12:43:26;99641.88;;;18.33;72.15
30598;BME280;17365;48.878;8.334;2022-09-25T12:46:35;99638.75;;;17.75;72.72
30598;BME280;17365;48.878;8.334;2022-09-25T12:52:09;99641.63;;;17.41;74.11
30598;BME280;17365;48.878;8.334;2022-09-25T12:54:52;99641.84;;;17.35;73.98
30598;BME280;17365;48.878;8.334;2022-09-25T13:00:18;99633.75;;;17.41;74.71
30598;BME280;17365;48.878;8.334;2022-09-25T13:03:07;99630.88;;;17.49;74.89
30598;BME280;17365;48.878;8.334;2022-09-25T13:05:40;99633.66;;;16.92;82.97
30598;BME280;17365;48.878;8.334;2022-09-25T13:08:14;99637.91;;;16.96;85.40
30598;BME280;17365;48.878;8.334;2022-09-25T13:10:52;99637.56;;;16.19;91.24
30598;BME280;17365;48.878;8.334;2022-09-25T13:13:24;99635.31;;;16.37;90.75
30598;BME280;17365;48.878;8.334;2022-09-25T13:15:58;99639.91;;;15.99;94.44
30598;BME280;17365;48.878;8.334;2022-09-25T13:18:26;99645.91;;;15.70;96.95
30598;BME280;17365;48.878;8.334;2022-09-25T13:20:54;99647.81;;;15.29;100.00
30598;BME280;17365;48.878;8.334;2022-09-25T13:25:46;99656.59;;;15.93;97.41
30598;BME280;17365;48.878;8.334;2022-09-25T13:28:32;99652.78;;;16.05;96.66
30598;BME280;17365;48.878;8.334;2022-09-25T13:31:08;99645.63;;;15.81;97.41
30598;BME280;17365;48.878;8.334;2022-09-25T13:33:47;99654.00;;;15.61;95.53
30598;BME280;17365;48.878;8.334;2022-09-25T13:38:56;99657.63;;;16.20;91.56
30598;BME280;17365;48.878;8.334;2022-09-25T13:41:55;99656.66;;;16.23;90.95
30598;BME280;17365;48.878;8.334;2022-09-25T13:50:17;99651.97;;;16.34;92.06
30598;BME280;17365;48.878;8.334;2022-09-25T13:55:16;99644.84;;;16.10;93.37
30598;BME280;17365;48.878;8.334;2022-09-25T14:00:49;99650.09;;;16.08;91.35
30598;BME280;17365;48.878;8.334;2022-09-25T14:03:43;99653.91;;;16.27;90.40
30598;BME280;17365;48.878;8.334;2022-09-25T14:06:18;99643.97;;;16.39;89.75
30598;BME280;17365;48.878;8.334;2022-09-25T14:08:45;99644.16;;;16.62;89.58
30598;BME280;17365;48.878;8.334;2022-09-25T14:11:15;99648.34;;;16.69;89.15
30598;BME280;17365;48.878;8.334;2022-09-25T14:13:43;99654.88;;;16.54;91.20
30598;BME280;17365;48.878;8.334;2022-09-25T14:16:27;99652.84;;;16.04;95.23
30598;BME280;17365;48.878;8.334;2022-09-25T14:18:57;99650.97;;;16.38;93.22
30598;BME280;17365;48.878;8.334;2022-09-25T14:21:24;99652.28;;;16.23;95.11
30598;BME280;17365;48.878;8.334;2022-09-25T14:23:55;99645.38;;;16.21;95.26
30598;BME280;17365;48.878;8.334;2022-09-25T14:26:24;99638.56;;;16.15;96.29
30598;BME280;17365;48.878;8.334;2022-09-25T14:28:52;99639.84;;;16.32;95.27
30598;BME280;17365;48.878;8.334;2022-09-25T14:37:22;99636.94;;;16.41;94.19
30598;BME280;17365;48.878;8.334;2022-09-25T14:39:42;99635.81;;;16.49;94.67
30598;BME280;17365;48.878;8.334;2022-09-25T14:47:32;99641.81;;;16.23;98.19
30598;BME280;17365;48.878;8.334;2022-09-25T14:49:59;99638.69;;;16.11;98.51
30598;BME280;17365;48.878;8.334;2022-09-25T14:52:27;99643.63;;;15.90;97.87
30598;BME280;17365;48.878;8.334;2022-09-25T14:54:56;99629.34;;;16.02;97.37
30598;BME280;17365;48.878;8.334;2022-09-25T14:57:31;99636.28;;;16.34;94.80
30598;BME280;17365;48.878;8.334;2022-09-25T15:00:05;99644.06;;;16.36;94.25
30598;BME280;17365;48.878;8.334;2022-09-25T15:02:42;99635.56;;;16.27;94.36
30598;BME280;17365;48.878;8.334;2022-09-25T15:07:49;99628.53;;;16.29;94.25
30598;BME280;17365;48.878;8.334;2022-09-25T15:10:33;99628.09;;;16.15;95.22
30598;BME280;17365;48.878;8.334;2022-09-25T15:15:47;99622.75;;;15.89;97.50
30598;BME280;17365;48.878;8.334;2022-09-25T15:18:35;99630.16;;;16.04;96.70
30598;BME280;17365;48.878;8.334;2022-09-25T15:21:02;99629.69;;;16.19;96.19
30598;BME280;17365;48.878;8.334;2022-09-25T15:23:27;99627.44;;;16.07;97.13
30598;BME280;17365;48.878;8.334;2022-09-25T15:25:54;99641.69;;;15.97;97.77
30598;BME280;17365;48.878;8.334;2022-09-25T15:28:22;99635.69;;;15.93;96.40
30598;BME280;17365;48.878;8.334;2022-09-25T15:31:00;99631.50;;;15.88;97.36